메인 페이지
METAR-TAF:

METAR-TAF

공항 :

테헤란 메흐라바드 국제공항

테헤란, 이란

위도: 35-41N, 경도: 051-21E, 고도: 1204m

현재 날씨관측

예보는 32분 전, 21:00시(UTC)에 발표되었습니다.
북서6kt
온도 17°C
습도 63%
기압 1023 hPa
시정 10km 이상
1500m 미만 상공 구름 및 적란운 없음

METAR: OIII 222100Z 31006KT CAVOK 17/10 Q1022 A3020 NOSIG

시각: 02:02 (21:32 UTC)

예보

예보는 4 시간 2분 전, 17:30시(UTC)에 발표되었습니다.
예보 대상 시간: 22일 18시부터 23일 24시까지 (UTC)
남남서8kt
시정: 7000m
고도 4000ft 상공 구름 조금
고도 10000ft 상공 구름 많음
일시적
22일 18시부터 22일 24시까지 (UTC)
고도 3000ft 상공 구름 조금, 적란운.
고도 4000ft 상공 구름 보통
고도 10000ft 상공 구름 많음
전환 중
23일 01시부터 23일 03시까지 (UTC)
고도 3000ft 상공 구름 조금, 적란운.
고도 4000ft 상공 구름 보통
고도 10000ft 상공 구름 많음
일시적
23일 03시부터 23일 09시까지 (UTC)
북서17kt
시정: 4000m
고도 3000ft 상공 구름 조금, 적란운.
고도 3500ft 상공 구름 보통
고도 9000ft 상공 구름 많음
뇌우, 비
일시적
23일 09시부터 23일 18시까지 (UTC)
북서16kt, 순간 최대 풍속 27kt
시정: 3000m
고도 3000ft 상공 구름 보통, 적란운.
고도 4000ft 상공 구름 보통
고도 9000ft 상공 흐림
뇌우, 비

TAF: OIII 221730Z 2218/2324 20004MPS 7000 FEW040 BKN100 TEMPO 2218/2224 FEW030CB SCT040 BKN100 BECMG 2301/2303 FEW030CB SCT040 BKN100 TEMPO 2303/2309 32009MPS 4000 TSRA FEW030CB SCT035 BKN090 TEMPO 2309/2318 32008G14MPS 3000 TSRA SCT030CB SCT040 OVC090

4,000개 이상의 공항 관측 자료 및 예보 (METAR 및 TAF 보고).

지도상에서 검색 가능한 기상관측소가 노란 점과 빨간 점으로 표시되어 있습니다.

기상관측소 명을 보려면 표시 위로 마우스를 이동하세요.

날씨 관측과 예보를 보려면 클릭하세요.

지도 변경 : 확대하려면 엑스 표시가 있는 녹색 버튼, 축소하려면 빼기 표시가 있는 녹색 버튼, 다음 페이지의 지도를 보려면 녹색 화살표를 클릭하세요.


METAR-TAF: